This is the latest recevied weather packets stored in our database for station/object IZ3ZOD-13. If no packets are shown the sender has not sent any weather packets the latest 10 day(s).
| Time | Temp. | Humidity | Pressure | Rain* | Wind** | Luminosity | Snow |
|---|---|---|---|---|---|---|---|
| 1777405444 | 17.78° C | 70% | 1015.7 hPa | 0 mm | - | - | - |
| 1777404963 | 17.78° C | 70% | 1015.6 hPa | 0 mm | - | - | - |
| 1777399443 | 20° C | 58% | 1014.9 hPa | 0 mm | - | - | - |
| 1777396803 | 21.11° C | 53% | 1014.7 hPa | 0 mm | - | - | - |
| 1777392004 | 23.33° C | 45% | 1014.4 hPa | 0 mm | - | - | - |
| 1777391763 | 23.33° C | 46% | 1014.5 hPa | 0 mm | - | - | - |
| 1777389843 | 23.33° C | 44% | 1014.6 hPa | 0 mm | - | - | - |
| 1777388883 | 23.33° C | 43% | 1014.4 hPa | 0 mm | - | - | - |
| 1777388644 | 23.89° C | 43% | 1014.5 hPa | 0 mm | - | - | - |
| 1777388164 | 23.89° C | 43% | 1014.5 hPa | 0 mm | - | - | - |
| 1777387924 | 24.44° C | 42% | 1014.6 hPa | 0 mm | - | - | - |
| 1777386243 | 24.44° C | 42% | 1014.9 hPa | 0 mm | - | - | - |
| 1777385523 | 23.89° C | 43% | 1014.7 hPa | 0 mm | - | - | - |
| 1777384803 | 23.89° C | 44% | 1014.9 hPa | 0 mm | - | - | - |
| 1777383604 | 23.89° C | 47% | 1015.2 hPa | 0 mm | - | - | - |
| 1777383364 | 23.89° C | 47% | 1015.2 hPa | 0 mm | - | - | - |
| 1777381684 | 24.44° C | 46% | 1015.4 hPa | 0 mm | - | - | - |
| 1777381444 | 24.44° C | 45% | 1015.5 hPa | 0 mm | - | - | - |
| 1777380483 | 24.44° C | 48% | 1015.4 hPa | 0 mm | - | - | - |
| 1777380003 | 24.44° C | 46% | 1015.4 hPa | 0 mm | - | - | - |
| 1777372083 | 23.89° C | 43% | 1016.4 hPa | 0 mm | - | - | - |
| 1777370296 | 23.33° C | 44% | 1016.4 hPa | 0 mm | - | - | - |
| 1777367043 | 22.22° C | 50% | 1016.8 hPa | 0 mm | - | - | - |
| 1777366697 | 22.22° C | 49% | 1017 hPa | 0 mm | - | - | - |
| 1777365843 | 21.67° C | 49% | 1016.7 hPa | 0 mm | - | - | - |
* Rain latest hour (hover to see other rain measurements)
** Current wind speed in m/s (hover to see current wind gust speed)